Time;durP1;ratioP1;P1;durP2;ratioP2;P2;SDS_P1;SDS_P2;PMS_P1;PMS_P2;Temp;Humidity;BMP_temperature;BMP_pressure;BME280_temperature;BME280_humidity;BME280_pressure;Samples;Min_cycle;Max_cycle;Signal;HPM_P1;HPM_P2
2022/05/07 00:00:27;;;;;;;31.30;14.30;;;15.90;99.90;;;;;;5042581;28;20227;-85
2022/05/07 00:02:52;;;;;;;24.33;14.88;;;16.00;99.90;;;;;;5055945;28;20643;-84
2022/05/07 00:05:19;;;;;;;17.65;14.00;;;16.10;99.90;;;;;;5053374;28;20592;-83
2022/05/07 00:07:45;;;;;;;23.63;13.88;;;16.10;99.90;;;;;;5055174;28;20170;-81
2022/05/07 00:10:11;;;;;;;19.88;14.90;;;16.00;99.90;;;;;;5041909;28;20640;-79
2022/05/07 00:12:37;;;;;;;23.40;15.18;;;16.00;99.90;;;;;;5039624;28;20215;-78
2022/05/07 00:15:03;;;;;;;22.67;15.10;;;16.00;99.90;;;;;;5039605;28;20195;-78
2022/05/07 00:20:12;;;;;;;21.77;16.50;;;16.20;99.90;;;;;;5035531;28;20187;-79
2022/05/07 00:22:38;;;;;;;15.88;14.07;;;16.40;99.90;;;;;;5035690;28;20616;-84
2022/05/07 00:25:04;;;;;;;21.92;14.70;;;16.20;99.90;;;;;;5035757;28;20223;-78
2022/05/07 00:27:29;;;;;;;18.77;15.07;;;16.20;99.90;;;;;;5035464;28;20160;-80
2022/05/07 00:29:55;;;;;;;22.05;14.85;;;16.20;99.90;;;;;;5035222;28;20689;-80
2022/05/07 00:32:21;;;;;;;18.75;14.02;;;16.00;99.90;;;;;;5035251;28;20229;-83
2022/05/07 00:34:47;;;;;;;25.35;15.73;;;15.90;99.90;;;;;;5035174;28;20168;-79
2022/05/07 00:37:13;;;;;;;20.85;15.70;;;15.80;99.90;;;;;;5035651;28;20156;-79
2022/05/07 00:39:38;;;;;;;18.90;15.60;;;15.90;99.90;;;;;;5035315;28;20305;-79
2022/05/07 00:42:05;;;;;;;24.15;15.60;;;15.90;99.90;;;;;;5035085;28;20667;-78
2022/05/07 00:44:32;;;;;;;20.17;15.48;;;15.80;99.90;;;;;;5035066;28;20167;-79
2022/05/07 00:47:07;;;;;;;17.33;15.25;;;15.80;99.90;;;;;;5034749;28;20215;-80
2022/05/07 00:49:34;;;;;;;22.35;14.90;;;15.70;99.90;;;;;;5035146;28;20174;-82
2022/05/07 00:52:00;;;;;;;21.90;14.95;;;15.80;99.90;;;;;;5034873;28;20708;-80
2022/05/07 00:54:25;;;;;;;18.23;15.52;;;15.80;99.90;;;;;;5034877;28;20259;-78
2022/05/07 00:56:51;;;;;;;23.50;15.80;;;15.80;99.90;;;;;;5034684;28;20196;-81
2022/05/07 00:59:17;;;;;;;21.30;15.27;;;15.80;99.90;;;;;;5034940;28;20226;-85
2022/05/07 01:01:43;;;;;;;25.73;15.98;;;15.80;99.90;;;;;;5035145;28;20176;-80
2022/05/07 01:04:09;;;;;;;17.85;15.38;;;15.90;99.90;;;;;;5035232;28;20215;-79
2022/05/07 01:06:35;;;;;;;23.00;16.20;;;15.80;99.90;;;;;;5036371;28;20184;-86
2022/05/07 01:09:01;;;;;;;35.95;15.43;;;16.00;99.90;;;;;;5035169;28;20655;-79
2022/05/07 01:11:27;;;;;;;18.55;15.50;;;16.00;99.90;;;;;;5034928;28;20537;-82
2022/05/07 01:13:52;;;;;;;19.60;15.70;;;16.00;99.90;;;;;;5035295;28;20298;-79
2022/05/07 01:16:18;;;;;;;19.55;15.00;;;16.00;99.90;;;;;;5033878;28;20310;-79
2022/05/07 01:18:44;;;;;;;17.30;15.32;;;16.10;99.90;;;;;;5034661;28;20262;-85
2022/05/07 01:21:14;;;;;;;21.08;16.73;;;16.20;99.90;;;;;;5035012;28;20222;-83
2022/05/07 01:23:41;;;;;;;23.85;16.15;;;16.20;99.90;;;;;;5050063;28;20174;-79
2022/05/07 01:26:08;;;;;;;25.30;15.38;;;16.40;99.90;;;;;;5050217;28;20557;-78
2022/05/07 01:28:33;;;;;;;21.60;15.48;;;16.60;99.90;;;;;;5034629;28;20270;-83
2022/05/07 01:30:59;;;;;;;26.90;17.00;;;16.60;99.90;;;;;;5034301;28;20666;-80
2022/05/07 01:33:25;;;;;;;25.85;16.42;;;16.70;99.90;;;;;;5034715;28;20298;-87
2022/05/07 01:35:51;;;;;;;22.23;15.63;;;16.50;99.90;;;;;;5034415;28;20187;-84
2022/05/07 01:38:16;;;;;;;19.48;15.20;;;16.30;99.90;;;;;;5034348;28;20179;-79
2022/05/07 01:40:42;;;;;;;21.45;15.27;;;16.10;99.90;;;;;;5033738;28;20219;-78
2022/05/07 01:43:08;;;;;;;16.20;12.13;;;15.80;99.90;;;;;;5033881;28;20579;-79
2022/05/07 01:45:34;;;;;;;14.48;11.80;;;16.00;99.90;;;;;;5034006;28;20562;-78
2022/05/07 01:48:11;;;;;;;13.88;9.23;;;16.00;99.90;;;;;;5033659;28;20656;-79
2022/05/07 01:50:39;;;;;;;9.55;7.32;;;16.10;99.90;;;;;;5033096;28;20247;-79
2022/05/07 01:53:06;;;;;;;8.93;6.93;;;16.00;99.90;;;;;;5033444;28;20206;-78
2022/05/07 01:55:33;;;;;;;9.00;5.60;;;15.90;99.90;;;;;;5034073;28;20196;-82
2022/05/07 01:57:59;;;;;;;9.55;5.88;;;16.00;99.90;;;;;;5034664;28;20243;-86
2022/05/07 02:00:25;;;;;;;8.43;5.20;;;16.00;99.90;;;;;;5034921;28;20190;-85
2022/05/07 02:02:51;;;;;;;6.13;4.93;;;15.90;99.90;;;;;;5034590;28;20176;-84
2022/05/07 02:05:16;;;;;;;6.97;5.53;;;15.80;99.90;;;;;;5034615;28;20187;-85
2022/05/07 02:07:42;;;;;;;13.90;7.18;;;16.00;99.90;;;;;;5034862;28;20319;-86
2022/05/07 02:10:08;;;;;;;12.98;6.95;;;16.00;99.90;;;;;;5034343;28;20164;-85
2022/05/07 02:12:34;;;;;;;12.73;8.27;;;16.10;99.90;;;;;;5034200;28;20211;-83
2022/05/07 02:14:59;;;;;;;9.13;7.70;;;16.30;99.90;;;;;;5048464;28;20644;-80
2022/05/07 02:17:25;;;;;;;13.43;7.72;;;16.30;99.90;;;;;;5033677;28;20182;-80
2022/05/07 02:19:51;;;;;;;11.80;7.57;;;16.40;99.90;;;;;;5033608;28;20168;-80
2022/05/07 02:22:16;;;;;;;7.57;6.70;;;16.30;99.90;;;;;;5033605;28;20179;-79
2022/05/07 02:24:42;;;;;;;18.67;9.40;;;16.20;99.90;;;;;;5033742;28;20186;-79
2022/05/07 02:27:08;;;;;;;25.45;7.60;;;16.20;99.90;;;;;;5033383;28;20184;-79
2022/05/07 02:29:33;;;;;;;8.57;7.43;;;16.10;99.90;;;;;;5033549;28;20628;-78
2022/05/07 02:32:06;;;;;;;7.97;7.18;;;16.20;99.90;;;;;;5033567;28;20218;-78
2022/05/07 02:34:36;;;;;;;12.52;7.75;;;16.20;99.90;;;;;;5033617;28;20233;-80
2022/05/07 02:37:03;;;;;;;11.10;9.50;;;16.20;99.90;;;;;;5033390;28;20187;-80
2022/05/07 02:39:29;;;;;;;14.35;9.90;;;16.20;99.90;;;;;;5033326;28;20171;-79
2022/05/07 02:44:40;;;;;;;9.48;8.57;;;16.10;99.90;;;;;;5033977;28;20230;-80
2022/05/07 02:47:06;;;;;;;9.68;8.68;;;16.00;99.90;;;;;;5033306;28;20239;-78
2022/05/07 02:49:32;;;;;;;12.18;8.93;;;16.20;99.90;;;;;;5033284;28;20647;-79
2022/05/07 02:51:58;;;;;;;10.00;9.00;;;16.10;99.90;;;;;;5033132;28;20190;-80
2022/05/07 02:54:24;;;;;;;13.45;9.20;;;16.00;99.90;;;;;;5033640;28;20254;-85
2022/05/07 02:56:50;;;;;;;11.18;9.38;;;15.90;99.90;;;;;;5033432;28;20690;-85
2022/05/07 02:59:15;;;;;;;11.27;7.35;;;15.90;99.90;;;;;;5033875;28;20225;-83
2022/05/07 03:01:41;;;;;;;10.93;7.82;;;15.80;99.90;;;;;;5032739;28;20176;-84
2022/05/07 03:04:08;;;;;;;16.50;7.38;;;15.70;99.90;;;;;;5033752;28;20160;-85
2022/05/07 03:06:34;;;;;;;6.95;6.32;;;15.60;99.90;;;;;;5033844;28;20337;-85
2022/05/07 03:09:00;;;;;;;10.93;7.00;;;15.60;99.90;;;;;;5034179;28;20191;-85
2022/05/07 03:11:26;;;;;;;10.40;6.90;;;15.50;99.90;;;;;;5034881;28;20640;-84
2022/05/07 03:13:52;;;;;;;11.45;7.07;;;15.40;99.90;;;;;;5034593;28;20210;-86
2022/05/07 03:16:17;;;;;;;10.95;5.97;;;15.30;99.90;;;;;;5034004;28;20199;-86
2022/05/07 03:18:43;;;;;;;7.00;5.72;;;15.20;99.90;;;;;;5034512;28;20251;-86
2022/05/07 03:21:09;;;;;;;18.10;6.32;;;15.20;99.90;;;;;;5033829;28;20164;-86
2022/05/07 03:23:35;;;;;;;9.93;5.38;;;15.20;99.90;;;;;;5033885;28;20168;-85
2022/05/07 03:26:00;;;;;;;7.82;5.57;;;15.20;99.90;;;;;;5032286;28;20196;-86
2022/05/07 03:28:26;;;;;;;12.27;6.22;;;15.20;99.90;;;;;;5033150;28;20251;-86
2022/05/07 03:30:52;;;;;;;8.27;5.20;;;15.00;99.90;;;;;;5033073;28;20179;-85
2022/05/07 03:33:17;;;;;;;6.93;5.28;;;15.10;99.90;;;;;;5033447;28;20207;-85
2022/05/07 03:35:43;;;;;;;6.97;4.95;;;15.10;99.90;;;;;;5033470;28;20191;-82
2022/05/07 03:38:10;;;;;;;8.55;5.45;;;15.10;99.90;;;;;;5033314;28;20639;-85
2022/05/07 03:40:35;;;;;;;5.03;4.63;;;15.10;99.90;;;;;;5033477;28;20628;-85
2022/05/07 03:43:03;;;;;;;5.75;4.63;;;15.00;99.90;;;;;;5032430;28;20178;-85
2022/05/07 03:45:29;;;;;;;9.50;5.95;;;15.10;99.90;;;;;;5033646;28;20179;-86
2022/05/07 03:47:56;;;;;;;13.45;5.60;;;15.10;99.90;;;;;;5033415;28;20164;-85
2022/05/07 03:50:22;;;;;;;8.82;5.00;;;15.10;99.90;;;;;;5033960;28;20182;-85
2022/05/07 03:55:32;;;;;;;8.68;5.95;;;14.90;99.90;;;;;;5034518;28;20201;-84
2022/05/07 03:57:58;;;;;;;8.68;6.38;;;14.90;99.90;;;;;;5035465;28;20168;-85
2022/05/07 04:00:24;;;;;;;7.80;6.00;;;15.00;99.90;;;;;;5035125;28;20659;-84
2022/05/07 04:02:49;;;;;;;10.20;5.65;;;15.00;99.90;;;;;;5035636;28;20522;-86
2022/05/07 04:05:15;;;;;;;7.78;5.40;;;14.80;99.90;;;;;;5034697;28;20195;-85
2022/05/07 04:07:41;;;;;;;9.13;5.70;;;14.70;99.90;;;;;;5052008;28;20311;-87
2022/05/07 04:10:07;;;;;;;9.65;5.95;;;14.70;99.90;;;;;;5036467;28;20175;-86
2022/05/07 04:12:33;;;;;;;11.85;6.13;;;14.60;99.90;;;;;;5037383;28;20207;-86
2022/05/07 04:15:00;;;;;;;6.85;5.05;;;14.50;99.90;;;;;;5039510;23;20223;-78
2022/05/07 04:17:25;;;;;;;5.85;5.05;;;14.60;99.90;;;;;;5015453;28;20172;-76
2022/05/07 04:19:51;;;;;;;10.77;6.40;;;14.60;99.90;;;;;;5030507;28;20235;-76
2022/05/07 04:22:17;;;;;;;8.80;5.65;;;14.60;99.90;;;;;;5015603;28;20161;-76
2022/05/07 04:24:43;;;;;;;9.48;6.80;;;14.60;99.90;;;;;;5015418;28;20179;-76
2022/05/07 04:27:09;;;;;;;9.68;6.18;;;14.80;99.90;;;;;;5014004;28;20551;-76
2022/05/07 04:29:35;;;;;;;11.65;6.80;;;14.70;99.90;;;;;;5014730;28;20196;-76
2022/05/07 04:32:01;;;;;;;10.23;6.72;;;14.60;99.90;;;;;;5014823;28;20156;-78
2022/05/07 04:34:28;;;;;;;10.98;7.20;;;14.60;99.90;;;;;;5015605;28;20172;-80
2022/05/07 04:36:54;;;;;;;10.25;8.10;;;14.60;99.90;;;;;;5015147;28;20309;-76
2022/05/07 04:39:20;;;;;;;8.80;7.47;;;14.60;99.90;;;;;;5015165;28;20265;-77
2022/05/07 04:41:46;;;;;;;13.98;7.55;;;14.60;99.90;;;;;;5013991;28;20165;-78
2022/05/07 04:44:12;;;;;;;12.60;7.75;;;14.50;99.90;;;;;;5014977;28;20324;-77
2022/05/07 04:46:39;;;;;;;12.45;7.32;;;14.50;99.90;;;;;;5014876;28;20705;-76
2022/05/07 04:49:08;;;;;;;14.38;8.45;;;14.60;99.90;;;;;;5014778;28;20173;-76
2022/05/07 04:51:33;;;;;;;11.60;7.78;;;14.70;99.90;;;;;;5014466;28;20529;-76
2022/05/07 04:53:59;;;;;;;12.88;8.05;;;14.50;99.90;;;;;;5015043;28;20205;-77
2022/05/07 04:56:25;;;;;;;15.80;8.90;;;14.50;99.90;;;;;;5014650;28;20323;-77
2022/05/07 04:58:52;;;;;;;11.60;8.02;;;14.60;99.90;;;;;;5015102;28;20180;-77
2022/05/07 05:01:17;;;;;;;18.42;9.25;;;14.80;99.90;;;;;;5014711;28;20203;-78
2022/05/07 05:03:43;;;;;;;11.18;8.27;;;14.80;99.90;;;;;;5014901;28;20645;-76
2022/05/07 05:06:09;;;;;;;20.10;9.80;;;14.80;99.90;;;;;;5014383;28;20208;-76
2022/05/07 05:08:35;;;;;;;16.02;9.20;;;14.80;99.90;;;;;;5014621;28;20181;-76
2022/05/07 05:11:00;;;;;;;16.77;8.52;;;15.00;99.90;;;;;;5014647;28;20171;-77
2022/05/07 05:13:26;;;;;;;14.23;9.45;;;15.10;99.90;;;;;;5014027;28;20214;-77
2022/05/07 05:15:51;;;;;;;12.70;8.88;;;15.00;99.90;;;;;;5013793;28;20188;-77
2022/05/07 05:18:17;;;;;;;15.65;9.30;;;15.00;99.90;;;;;;5014222;28;20249;-77
2022/05/07 05:20:43;;;;;;;15.75;8.65;;;15.00;99.90;;;;;;5014164;28;20196;-77
2022/05/07 05:23:09;;;;;;;13.32;8.73;;;15.10;99.90;;;;;;5014272;28;20592;-77
2022/05/07 05:25:35;;;;;;;14.70;9.93;;;15.10;99.90;;;;;;5012981;28;20624;-77
2022/05/07 05:28:00;;;;;;;13.15;8.38;;;15.20;99.90;;;;;;5012591;28;20176;-77
2022/05/07 05:30:26;;;;;;;19.02;9.02;;;15.30;99.90;;;;;;5013715;28;20687;-77
2022/05/07 05:32:52;;;;;;;16.33;9.13;;;15.30;99.90;;;;;;5013911;28;20208;-78
2022/05/07 05:35:17;;;;;;;23.92;11.07;;;15.20;99.90;;;;;;5013607;28;20657;-78
2022/05/07 05:37:43;;;;;;;20.95;9.68;;;15.30;99.90;;;;;;5014093;28;20169;-78
2022/05/07 05:40:09;;;;;;;13.05;8.18;;;15.40;99.90;;;;;;5014084;28;20521;-77
2022/05/07 05:42:34;;;;;;;19.80;9.82;;;15.10;99.90;;;;;;5013943;28;20538;-77
2022/05/07 05:45:00;;;;;;;9.75;7.57;;;15.00;99.90;;;;;;5013791;28;20170;-77
2022/05/07 05:47:26;;;;;;;17.40;10.15;;;15.00;99.90;;;;;;5028871;28;20176;-78
2022/05/07 05:49:52;;;;;;;18.83;9.27;;;15.20;99.90;;;;;;5013766;28;20187;-76
2022/05/07 05:52:18;;;;;;;17.67;10.38;;;15.40;99.90;;;;;;5013393;28;20677;-74
2022/05/07 05:54:45;;;;;;;19.85;9.63;;;15.60;99.90;;;;;;5028709;28;20184;-75
2022/05/07 05:57:11;;;;;;;16.15;9.95;;;15.70;99.90;;;;;;5013430;28;20184;-77
2022/05/07 05:59:36;;;;;;;21.50;10.30;;;15.50;99.90;;;;;;5013582;28;20291;-75
2022/05/07 06:02:02;;;;;;;20.45;9.25;;;15.60;99.90;;;;;;5013672;28;20247;-75
2022/05/07 06:04:28;;;;;;;15.93;8.57;;;15.80;99.90;;;;;;5012611;28;20540;-75
2022/05/07 06:06:53;;;;;;;14.88;9.93;;;15.80;99.90;;;;;;5013374;28;20196;-76
2022/05/07 06:09:21;;;;;;;20.00;11.38;;;15.90;99.90;;;;;;5013833;28;20255;-75
2022/05/07 06:11:46;;;;;;;13.30;9.63;;;15.90;99.90;;;;;;5013288;28;20172;-75
2022/05/07 06:14:12;;;;;;;20.58;10.73;;;15.70;99.90;;;;;;5013250;28;20539;-77
2022/05/07 06:16:38;;;;;;;17.17;9.25;;;15.70;99.90;;;;;;5012860;28;20184;-79
2022/05/07 06:19:04;;;;;;;17.88;9.98;;;15.60;99.90;;;;;;5013270;28;20228;-76
2022/05/07 06:21:30;;;;;;;18.67;10.30;;;15.70;99.90;;;;;;5011748;28;20176;-78
2022/05/07 06:23:55;;;;;;;18.90;11.25;;;15.70;99.90;;;;;;5013588;28;20195;-78
2022/05/07 06:29:05;;;;;;;17.85;11.32;;;15.70;99.90;;;;;;5012673;28;20199;-84
2022/05/07 06:31:31;;;;;;;14.00;10.05;;;15.70;99.90;;;;;;5013280;28;20621;-79
2022/05/07 06:33:58;;;;;;;24.80;10.80;;;15.90;99.90;;;;;;5013513;28;20220;-82
2022/05/07 06:36:23;;;;;;;16.38;9.80;;;16.00;99.90;;;;;;5012630;28;20188;-83
2022/05/07 06:38:49;;;;;;;19.33;10.48;;;16.10;99.90;;;;;;5013929;28;20191;-79
2022/05/07 06:41:15;;;;;;;15.48;9.45;;;15.80;99.90;;;;;;5014051;28;20164;-80
2022/05/07 06:43:40;;;;;;;14.13;11.00;;;15.90;99.90;;;;;;5013365;28;20303;-79
2022/05/07 06:46:06;;;;;;;23.20;10.63;;;16.00;99.90;;;;;;5013197;28;20188;-85
2022/05/07 06:48:31;;;;;;;15.98;9.65;;;16.10;99.90;;;;;;5013357;28;20180;-77
2022/05/07 06:50:57;;;;;;;16.52;10.85;;;16.20;99.90;;;;;;5013872;28;20226;-79
2022/05/07 06:53:23;;;;;;;20.70;11.25;;;16.10;99.90;;;;;;5013443;28;20208;-85
2022/05/07 06:55:56;;;;;;;17.48;10.70;;;16.10;99.90;;;;;;5013472;28;20180;-85
2022/05/07 06:58:34;;;;;;;15.82;9.68;;;16.10;99.90;;;;;;5013399;28;20620;-77
2022/05/07 07:01:01;;;;;;;17.85;11.27;;;16.20;99.90;;;;;;5011732;28;20625;-78
2022/05/07 07:03:27;;;;;;;25.08;11.48;;;16.70;99.90;;;;;;5013533;28;20167;-89
2022/05/07 07:05:55;;;;;;;20.88;11.32;;;16.60;99.90;;;;;;5013483;28;20192;-80
2022/05/07 07:08:21;;;;;;;18.58;10.10;;;16.50;99.90;;;;;;5013646;28;20212;-80
2022/05/07 07:10:47;;;;;;;18.85;10.77;;;16.90;99.90;;;;;;5013369;28;20172;-77
2022/05/07 07:13:13;;;;;;;18.73;10.70;;;17.00;99.90;;;;;;5012829;28;20275;-78
2022/05/07 07:15:39;;;;;;;20.88;11.52;;;17.00;99.90;;;;;;5015018;28;20231;-77
2022/05/07 07:18:09;;;;;;;18.65;11.77;;;17.00;99.90;;;;;;5019135;28;20172;-82
2022/05/07 07:20:48;;;;;;;18.33;11.60;;;16.80;99.90;;;;;;4999570;28;20234;-79
2022/05/07 07:23:13;;;;;;;31.00;11.35;;;16.60;99.90;;;;;;5021499;28;20176;-77
2022/05/07 07:25:42;;;;;;;19.58;11.45;;;16.80;99.90;;;;;;5018334;28;20192;-76
2022/05/07 07:28:10;;;;;;;16.83;11.38;;;17.20;99.90;;;;;;5016754;28;20164;-81
2022/05/07 07:30:36;;;;;;;21.45;11.57;;;17.30;99.90;;;;;;5017407;28;20181;-79
2022/05/07 07:33:03;;;;;;;18.98;10.95;;;17.40;99.90;;;;;;5021226;28;20236;-77
2022/05/07 07:35:28;;;;;;;28.90;12.40;;;17.50;99.90;;;;;;5014847;28;20272;-79
2022/05/07 07:37:54;;;;;;;26.75;12.35;;;17.80;99.90;;;;;;5018362;28;20211;-78
2022/05/07 07:40:20;;;;;;;19.90;12.27;;;18.20;99.90;;;;;;5017605;28;20220;-79
2022/05/07 07:42:46;;;;;;;25.33;12.80;;;17.80;99.90;;;;;;5019347;28;20168;-81
2022/05/07 07:47:57;;;;;;;16.33;13.00;;;18.30;99.90;;;;;;5019218;28;20172;-80
2022/05/07 07:50:29;;;;;;;23.67;11.70;;;18.70;99.90;;;;;;5021324;28;20192;-79
2022/05/07 07:52:56;;;;;;;22.92;13.00;;;19.20;99.90;;;;;;5021984;28;20204;-79
2022/05/07 07:55:22;;;;;;;27.85;12.90;;;19.30;99.90;;;;;;5020585;28;20279;-81
2022/05/07 07:57:49;;;;;;;25.10;13.98;;;19.70;99.90;;;;;;5033548;28;20323;-79
2022/05/07 08:00:15;;;;;;;32.13;14.23;;;19.70;99.90;;;;;;5016774;28;20184;-86
2022/05/07 08:02:48;;;;;;;19.42;13.50;;;19.70;99.90;;;;;;5017825;28;20169;-79
2022/05/07 08:05:14;;;;;;;28.13;14.52;;;20.10;99.90;;;;;;5017008;28;20188;-81
2022/05/07 08:13:08;;;;;;;30.63;13.65;;;20.50;99.90;;;;;;5015756;28;20215;-82
2022/05/07 08:15:34;;;;;;;33.10;14.32;;;20.60;99.90;;;;;;5015849;28;20200;-83
2022/05/07 08:17:59;;;;;;;22.75;13.82;;;20.50;99.90;;;;;;5015594;28;20168;-81
2022/05/07 08:20:25;;;;;;;31.10;14.13;;;20.20;99.90;;;;;;5016375;28;20622;-80
2022/05/07 08:22:50;;;;;;;26.65;12.82;;;20.00;99.90;;;;;;5016172;28;20161;-80
2022/05/07 08:25:16;;;;;;;27.73;13.38;;;19.40;99.90;;;;;;5015772;28;20193;-80
2022/05/07 08:27:42;;;;;;;26.70;13.48;;;19.60;99.90;;;;;;5030660;28;20188;-81
2022/05/07 08:30:08;;;;;;;27.23;13.15;;;20.00;99.90;;;;;;5014290;28;20176;-76
2022/05/07 08:32:33;;;;;;;24.63;12.52;;;20.50;99.90;;;;;;5014967;28;20206;-81
2022/05/07 08:34:59;;;;;;;28.90;13.75;;;20.70;99.90;;;;;;5015029;28;20259;-75
2022/05/07 08:37:25;;;;;;;22.55;12.70;;;21.00;99.90;;;;;;5014920;28;20168;-76
2022/05/07 08:39:50;;;;;;;19.83;12.05;;;21.00;99.90;;;;;;5014610;28;20173;-80
2022/05/07 08:42:16;;;;;;;24.02;12.93;;;21.30;99.90;;;;;;5014496;28;20176;-76
2022/05/07 08:44:42;;;;;;;25.83;13.55;;;21.20;99.90;;;;;;5013729;28;21346;-78
2022/05/07 08:47:07;;;;;;;30.98;14.70;;;21.60;99.90;;;;;;5014805;28;20657;-82
2022/05/07 08:49:33;;;;;;;21.58;13.45;;;21.40;99.90;;;;;;5014598;28;20192;-77
2022/05/07 08:52:02;;;;;;;25.73;13.32;;;21.80;99.90;;;;;;5013828;28;20173;-77
2022/05/07 08:54:30;;;;;;;23.27;12.02;;;21.80;99.90;;;;;;5014547;28;20540;-74
2022/05/07 08:56:56;;;;;;;23.33;12.52;;;22.10;99.90;;;;;;5014596;28;20604;-74
2022/05/07 08:59:22;;;;;;;24.45;14.10;;;21.90;99.90;;;;;;5014359;28;20279;-73
2022/05/07 09:01:48;;;;;;;29.15;13.05;;;21.80;99.90;;;;;;5014258;28;20259;-74
2022/05/07 09:04:13;;;;;;;28.38;13.00;;;21.80;99.90;;;;;;5014059;28;20208;-74
2022/05/07 09:06:39;;;;;;;28.02;13.40;;;21.60;99.90;;;;;;5029840;28;20185;-74
2022/05/07 09:09:06;;;;;;;30.67;14.25;;;21.90;99.90;;;;;;5014441;28;20558;-74
2022/05/07 09:11:42;;;;;;;31.83;12.95;;;21.90;99.90;;;;;;5014290;28;20307;-74
2022/05/07 09:14:08;;;;;;;18.50;12.90;;;22.50;99.90;;;;;;5013088;28;20242;-74
2022/05/07 09:16:42;;;;;;;27.08;14.15;;;22.60;99.90;;;;;;5015306;28;20192;-74
2022/05/07 09:19:27;;;;;;;18.92;11.90;;;22.90;99.90;;;;;;5016933;28;20534;-74
2022/05/07 09:22:07;;;;;;;18.70;11.98;;;22.50;99.90;;;;;;5014516;28;20160;-74
2022/05/07 09:24:33;;;;;;;21.48;11.82;;;22.70;99.90;;;;;;5029808;28;20172;-74
2022/05/07 09:26:59;;;;;;;21.20;11.65;;;22.80;99.90;;;;;;5014116;28;20652;-74
2022/05/07 09:29:32;;;;;;;26.98;12.75;;;23.00;99.90;;;;;;5013970;28;20170;-75
2022/05/07 09:32:09;;;;;;;22.27;12.05;;;22.80;99.90;;;;;;5013955;28;20173;-74
2022/05/07 09:37:37;;;;;;;22.75;10.82;;;23.10;99.90;;;;;;5013859;28;20246;-75
2022/05/07 09:40:08;;;;;;;26.20;11.40;;;22.90;99.90;;;;;;5012391;28;20267;-75
2022/05/07 09:42:34;;;;;;;20.08;10.80;;;22.90;99.90;;;;;;5012675;28;20201;-74
2022/05/07 09:45:01;;;;;;;20.02;10.38;;;22.80;99.90;;;;;;5013827;28;20199;-75
2022/05/07 09:47:31;;;;;;;22.45;11.25;;;22.80;99.90;;;;;;5012599;28;20177;-75
2022/05/07 09:58:12;;;;;;;23.88;10.27;;;22.30;99.90;;;;;;5013843;28;20271;-75
2022/05/07 10:00:49;;;;;;;22.40;10.90;;;22.80;99.90;;;;;;5012933;28;20161;-76
2022/05/07 10:03:52;;;;;;;17.48;9.60;;;23.10;99.90;;;;;;5014585;28;20172;-76
2022/05/07 10:06:30;;;;;;;16.75;10.02;;;22.70;99.90;;;;;;5014562;28;20204;-75
2022/05/07 10:09:25;;;;;;;15.90;10.52;;;22.90;99.90;;;;;;5012306;28;20663;-75
2022/05/07 10:11:56;;;;;;;16.23;9.90;;;22.40;99.90;;;;;;5001189;28;20181;-77
2022/05/07 10:14:30;;;;;;;20.73;10.80;;;22.70;99.90;;;;;;5013513;28;20188;-78
2022/05/07 10:17:21;;;;;;;22.85;11.82;;;22.70;99.90;;;;;;5014248;28;20204;-85
2022/05/07 10:19:49;;;;;;;17.83;12.18;;;22.40;99.90;;;;;;5013861;28;20179;-78
2022/05/07 10:22:16;;;;;;;17.50;10.82;;;22.00;99.90;;;;;;5014255;28;20226;-86
2022/05/07 10:24:42;;;;;;;13.90;11.25;;;21.50;99.90;;;;;;5014444;28;20207;-86
2022/05/07 10:27:21;;;;;;;23.30;11.82;;;20.70;99.90;;;;;;5013951;28;20184;-82
2022/05/07 10:29:47;;;;;;;23.23;12.02;;;20.40;99.90;;;;;;5014495;28;20160;-85
2022/05/07 10:32:18;;;;;;;21.60;12.00;;;20.60;99.90;;;;;;5014410;28;20230;-85
2022/05/07 10:34:52;;;;;;;18.95;12.23;;;20.60;99.90;;;;;;5014462;28;20187;-87
2022/05/07 10:37:17;;;;;;;29.52;13.27;;;20.80;99.90;;;;;;5014099;28;20164;-84
2022/05/07 10:39:52;;;;;;;23.65;12.90;;;21.00;99.90;;;;;;5014663;28;20186;-84
2022/05/07 10:42:19;;;;;;;24.05;13.75;;;21.20;99.90;;;;;;5029378;28;20180;-87
2022/05/07 10:44:45;;;;;;;22.48;12.27;;;21.20;99.90;;;;;;5013139;28;20211;-80
2022/05/07 10:47:20;;;;;;;16.45;12.25;;;21.20;99.90;;;;;;5013412;28;20189;-81
2022/05/07 10:50:12;;;;;;;21.75;12.95;;;21.00;99.90;;;;;;5013569;28;20183;-86
2022/05/07 10:52:37;;;;;;;28.52;13.10;;;21.30;99.90;;;;;;5013684;28;20200;-81
2022/05/07 10:55:05;;;;;;;27.40;12.90;;;21.40;99.90;;;;;;5013148;28;20629;-77
2022/05/07 10:57:41;;;;;;;22.52;11.95;;;21.30;99.90;;;;;;5013452;28;20160;-80
2022/05/07 11:00:18;;;;;;;22.73;13.10;;;21.40;99.90;;;;;;5013583;28;20272;-84
2022/05/07 11:02:45;;;;;;;20.55;12.10;;;21.50;99.90;;;;;;5013587;28;20187;-82
2022/05/07 11:05:14;;;;;;;29.25;11.77;;;21.60;99.90;;;;;;5013476;28;20184;-83
2022/05/07 11:07:40;;;;;;;20.77;12.90;;;21.70;99.90;;;;;;5014368;28;20192;-86
2022/05/07 11:10:07;;;;;;;27.45;13.35;;;22.10;99.90;;;;;;5013622;28;20180;-80
2022/05/07 11:12:35;;;;;;;20.40;11.60;;;21.50;99.90;;;;;;5013911;28;20241;-91
2022/05/07 11:15:05;;;;;;;18.35;10.52;;;21.40;99.90;;;;;;5013314;28;20281;-86
2022/05/07 11:17:36;;;;;;;21.63;11.45;;;21.60;99.90;;;;;;5013206;28;20169;-84
2022/05/07 11:20:03;;;;;;;13.05;10.75;;;21.40;99.90;;;;;;5013798;28;20252;-83
2022/05/07 11:22:31;;;;;;;16.15;10.45;;;21.60;99.90;;;;;;5013681;28;20156;-82
2022/05/07 11:24:59;;;;;;;19.70;10.55;;;21.70;99.90;;;;;;5016470;28;20194;-85
2022/05/07 11:27:31;;;;;;;16.45;10.63;;;21.40;99.90;;;;;;5017010;28;20173;-81
2022/05/07 11:29:56;;;;;;;19.33;11.85;;;21.60;99.90;;;;;;5017352;28;20168;-78
2022/05/07 11:32:22;;;;;;;15.50;10.45;;;21.80;99.90;;;;;;5016007;28;20236;-79
2022/05/07 11:34:55;;;;;;;18.00;9.43;;;21.80;99.90;;;;;;5015964;28;20176;-79
2022/05/07 11:37:24;;;;;;;14.93;9.25;;;21.70;99.90;;;;;;5014815;28;20180;-80
2022/05/07 11:39:50;;;;;;;11.27;9.15;;;21.80;99.90;;;;;;5014218;28;20177;-82
2022/05/07 11:42:39;;;;;;;15.30;9.35;;;22.10;99.90;;;;;;5001796;28;20656;-85
2022/05/07 11:45:29;;;;;;;12.90;7.65;;;22.50;99.90;;;;;;4995732;28;20180;-81
2022/05/07 11:48:17;;;;;;;12.48;9.00;;;22.90;99.90;;;;;;4995283;28;20181;-80
2022/05/07 11:50:54;;;;;;;18.33;9.25;;;22.50;99.90;;;;;;5011010;28;20506;-79
2022/05/07 11:53:27;;;;;;;10.02;8.48;;;22.30;99.90;;;;;;5016159;28;20243;-84
2022/05/07 11:56:07;;;;;;;17.42;8.45;;;22.70;99.90;;;;;;5016172;28;20204;-86
2022/05/07 11:58:40;;;;;;;11.55;7.55;;;22.90;99.90;;;;;;5016630;28;20172;-87
2022/05/07 12:01:21;;;;;;;14.20;7.88;;;22.80;99.90;;;;;;5016557;28;20175;-79
2022/05/07 12:03:48;;;;;;;10.15;7.60;;;22.80;99.90;;;;;;5016210;28;20176;-81
2022/05/07 12:06:25;;;;;;;17.75;6.45;;;22.80;99.90;;;;;;5016545;28;20215;-81
2022/05/07 12:08:51;;;;;;;11.18;6.22;;;22.70;99.90;;;;;;5016523;28;20653;-85
2022/05/07 12:11:17;;;;;;;11.20;6.57;;;22.30;99.90;;;;;;5014630;28;20176;-86
2022/05/07 12:13:45;;;;;;;9.18;7.10;;;21.80;99.90;;;;;;5015105;28;20689;-84
2022/05/07 12:18:55;;;;;;;9.50;6.80;;;21.60;99.90;;;;;;5017537;28;20279;-91
2022/05/07 12:29:48;;;;;;;10.82;5.63;;;21.50;99.90;;;;;;5016215;28;20680;-81
2022/05/07 12:29:50;;;;;;;6.50;5.18;;;21.90;99.90;;;;;;5015617;28;20172;-83
2022/05/07 12:32:20;;;;;;;17.20;5.40;;;22.00;99.90;;;;;;5013668;28;20180;-82
2022/05/07 12:34:48;;;;;;;10.30;6.45;;;22.60;99.90;;;;;;5013638;28;20176;-82
2022/05/07 12:37:15;;;;;;;6.97;6.28;;;22.70;99.90;;;;;;5014387;28;20180;-90
2022/05/07 12:39:41;;;;;;;8.75;6.55;;;22.50;99.90;;;;;;5014909;28;20532;-86
2022/05/07 12:42:09;;;;;;;10.10;7.13;;;21.90;99.90;;;;;;5014401;28;20180;-87
2022/05/07 12:44:35;;;;;;;9.18;7.10;;;22.00;99.90;;;;;;5016562;28;20171;-89
2022/05/07 12:47:01;;;;;;;10.70;6.53;;;22.00;99.90;;;;;;5014984;28;20185;-86
2022/05/07 12:49:27;;;;;;;6.95;6.35;;;21.90;99.90;;;;;;5016960;28;20173;-88
2022/05/07 12:51:53;;;;;;;8.25;7.35;;;21.30;99.90;;;;;;5015697;28;20175;-87
2022/05/07 12:54:19;;;;;;;13.57;6.97;;;21.40;99.90;;;;;;5014717;28;20208;-88
2022/05/07 12:56:46;;;;;;;16.48;7.43;;;21.60;99.90;;;;;;5016563;28;20747;-87
2022/05/07 12:59:11;;;;;;;8.15;7.13;;;21.70;99.90;;;;;;5014719;28;20172;-88
2022/05/07 13:01:38;;;;;;;12.60;7.30;;;21.80;99.90;;;;;;5014933;28;20604;-91
2022/05/07 13:04:04;;;;;;;14.93;6.82;;;21.90;99.90;;;;;;5015353;28;20165;-90
2022/05/07 13:06:30;;;;;;;9.95;7.18;;;22.10;99.90;;;;;;5014688;28;20199;-91
2022/05/07 13:08:59;;;;;;;8.23;5.72;;;21.70;99.90;;;;;;5014695;28;20169;-90
2022/05/07 13:11:26;;;;;;;9.73;6.38;;;21.60;99.90;;;;;;5021065;28;20179;-91
2022/05/07 13:13:51;;;;;;;12.00;5.90;;;22.00;99.90;;;;;;5026401;28;20212;-89